Time;durP1;ratioP1;P1;durP2;ratioP2;P2;SDS_P1;SDS_P2;PMS_P1;PMS_P2;Temp;Humidity;BMP_temperature;BMP_pressure;BME280_temperature;BME280_humidity;BME280_pressure;Samples;Min_cycle;Max_cycle;Signal;HPM_P1;HPM_P2
2023/08/07 00:01:34;;;;;;;10.02;0.90;;;13.80;99.90;;;;;;5064288;28;20102;-74
2023/08/07 00:04:00;;;;;;;5.82;0.65;;;13.70;99.90;;;;;;5060504;28;20021;-74
2023/08/07 00:06:25;;;;;;;6.28;0.85;;;13.80;99.90;;;;;;5049484;28;20037;-75
2023/08/07 00:08:51;;;;;;;7.25;0.75;;;13.70;99.90;;;;;;5058782;28;20031;-74
2023/08/07 00:11:16;;;;;;;9.23;1.33;;;13.70;99.90;;;;;;5069013;28;20024;-74
2023/08/07 00:13:42;;;;;;;7.30;0.82;;;13.60;99.90;;;;;;5070498;28;20032;-75
2023/08/07 00:16:07;;;;;;;12.18;1.15;;;13.60;99.90;;;;;;5066944;28;20028;-74
2023/08/07 00:18:33;;;;;;;6.57;1.02;;;13.60;99.90;;;;;;5051188;28;20021;-74
2023/08/07 00:20:59;;;;;;;7.85;1.17;;;13.60;99.90;;;;;;5050415;28;20040;-74
2023/08/07 00:23:25;;;;;;;7.88;0.65;;;13.60;99.90;;;;;;5050541;28;20039;-74
2023/08/07 00:25:50;;;;;;;11.23;1.13;;;13.60;99.90;;;;;;5049198;28;20025;-75
2023/08/07 00:28:16;;;;;;;5.15;0.80;;;13.60;99.90;;;;;;5050707;28;20025;-74
2023/08/07 00:30:41;;;;;;;10.80;1.10;;;13.60;99.90;;;;;;5049367;28;20020;-74
2023/08/07 00:33:07;;;;;;;9.32;1.05;;;13.50;99.90;;;;;;5050630;28;20025;-74
2023/08/07 00:35:32;;;;;;;14.65;1.42;;;13.40;99.90;;;;;;5049293;28;20017;-75
2023/08/07 00:37:58;;;;;;;8.07;0.90;;;13.40;99.90;;;;;;5050320;28;20428;-74
2023/08/07 00:40:23;;;;;;;10.20;1.50;;;13.30;99.90;;;;;;5065798;28;20473;-73
2023/08/07 00:42:49;;;;;;;8.30;1.45;;;13.30;99.90;;;;;;5055089;28;20477;-73
2023/08/07 00:45:14;;;;;;;7.53;1.30;;;13.30;99.90;;;;;;5051818;28;20061;-74
2023/08/07 00:47:41;;;;;;;9.18;1.25;;;13.30;99.90;;;;;;5049884;28;20417;-73
2023/08/07 00:50:08;;;;;;;10.75;1.33;;;13.20;99.90;;;;;;5062725;28;20028;-73
2023/08/07 00:52:33;;;;;;;16.25;1.58;;;13.20;99.90;;;;;;5070457;28;20024;-74
2023/08/07 00:54:59;;;;;;;12.88;1.23;;;13.20;99.90;;;;;;5051633;28;20032;-74
2023/08/07 00:57:25;;;;;;;8.48;1.77;;;13.20;99.90;;;;;;5042864;28;20052;-74
2023/08/07 00:59:50;;;;;;;12.23;1.73;;;13.20;99.90;;;;;;5028148;28;20021;-74
2023/08/07 01:02:16;;;;;;;8.18;1.63;;;13.20;99.90;;;;;;5057634;28;20057;-74
2023/08/07 01:04:42;;;;;;;11.93;1.65;;;13.20;99.90;;;;;;5050268;28;20021;-74
2023/08/07 01:07:08;;;;;;;14.85;2.25;;;13.20;99.90;;;;;;5048838;28;20041;-74
2023/08/07 01:09:33;;;;;;;12.73;1.63;;;13.20;99.90;;;;;;5063042;28;20024;-74
2023/08/07 01:12:13;;;;;;;9.30;1.38;;;13.20;99.90;;;;;;5070217;28;20523;-74
2023/08/07 01:14:44;;;;;;;11.68;1.80;;;13.20;99.90;;;;;;5070343;28;20519;-74
2023/08/07 01:17:13;;;;;;;11.87;1.60;;;13.30;99.90;;;;;;5057191;28;20032;-73
2023/08/07 01:19:40;;;;;;;14.05;1.85;;;13.30;99.90;;;;;;5074214;28;20032;-75
2023/08/07 01:22:10;;;;;;;12.75;1.95;;;13.20;99.90;;;;;;5073720;28;20036;-74
2023/08/07 01:24:36;;;;;;;12.32;2.15;;;13.30;99.90;;;;;;5074212;28;20033;-74
2023/08/07 01:27:17;;;;;;;9.70;1.30;;;13.30;99.90;;;;;;5059470;28;20045;-73
2023/08/07 01:29:51;;;;;;;12.68;1.52;;;13.30;99.90;;;;;;5045002;28;20105;-75
2023/08/07 01:32:24;;;;;;;13.38;1.55;;;13.30;99.90;;;;;;5065092;28;20419;-74
2023/08/07 01:34:51;;;;;;;9.93;1.50;;;13.30;99.90;;;;;;5067370;28;20037;-74
2023/08/07 01:37:17;;;;;;;11.38;1.33;;;13.30;99.90;;;;;;5053219;28;20040;-74
2023/08/07 01:39:44;;;;;;;11.00;1.30;;;13.30;99.90;;;;;;5053664;28;20025;-74
2023/08/07 01:42:09;;;;;;;3.03;0.68;;;13.30;99.90;;;;;;5053875;28;20428;-74
2023/08/07 01:44:36;;;;;;;6.93;1.15;;;13.40;99.90;;;;;;5064052;28;20032;-75
2023/08/07 01:47:02;;;;;;;8.95;1.17;;;13.40;99.90;;;;;;5053985;28;20119;-74
2023/08/07 01:49:27;;;;;;;10.43;1.75;;;13.40;99.90;;;;;;5059494;28;20103;-75
2023/08/07 01:51:53;;;;;;;8.15;0.93;;;13.30;99.90;;;;;;5073314;28;20028;-74
2023/08/07 01:54:18;;;;;;;6.03;0.98;;;13.40;99.90;;;;;;5056984;28;20024;-75
2023/08/07 01:56:44;;;;;;;5.38;0.90;;;13.30;99.90;;;;;;5070326;28;20029;-75
2023/08/07 01:59:09;;;;;;;9.55;0.93;;;13.40;99.90;;;;;;5065475;28;20504;-75
2023/08/07 02:01:35;;;;;;;7.82;0.80;;;13.30;99.90;;;;;;5055592;28;20135;-74
2023/08/07 02:04:00;;;;;;;15.68;1.75;;;13.30;99.90;;;;;;5069702;28;20361;-74
2023/08/07 02:06:26;;;;;;;11.23;1.00;;;13.30;99.90;;;;;;5053551;28;20033;-74
2023/08/07 02:08:51;;;;;;;7.07;0.98;;;13.30;99.90;;;;;;5071265;28;20040;-74
2023/08/07 02:11:17;;;;;;;13.02;1.40;;;13.30;99.90;;;;;;5060131;28;20066;-74
2023/08/07 02:13:42;;;;;;;9.48;1.35;;;13.30;99.90;;;;;;5072770;28;20020;-75
2023/08/07 02:16:08;;;;;;;7.90;1.10;;;13.30;99.90;;;;;;5037296;28;20397;-74
2023/08/07 02:18:35;;;;;;;10.80;1.58;;;13.30;99.90;;;;;;5064279;28;20024;-74
2023/08/07 02:21:01;;;;;;;7.07;1.10;;;13.40;99.90;;;;;;5070196;28;20021;-74
2023/08/07 02:23:28;;;;;;;7.97;1.33;;;13.40;99.90;;;;;;5053296;28;20473;-74
2023/08/07 02:25:54;;;;;;;5.97;1.17;;;13.40;99.90;;;;;;5059954;28;20484;-74
2023/08/07 02:28:20;;;;;;;10.95;1.42;;;13.40;99.90;;;;;;5053576;28;20044;-74
2023/08/07 02:30:51;;;;;;;7.38;1.27;;;13.40;99.90;;;;;;5051882;28;20374;-74
2023/08/07 02:33:16;;;;;;;7.10;0.90;;;13.50;99.90;;;;;;5051737;28;20067;-74
2023/08/07 02:35:42;;;;;;;6.35;1.00;;;13.50;99.90;;;;;;5052572;28;20032;-74
2023/08/07 02:38:07;;;;;;;7.38;1.20;;;13.50;99.90;;;;;;5052472;28;20047;-74
2023/08/07 02:40:33;;;;;;;9.23;0.90;;;13.40;99.90;;;;;;5061549;28;20354;-74
2023/08/07 02:42:58;;;;;;;7.22;1.15;;;13.40;99.90;;;;;;5052821;28;20499;-74
2023/08/07 02:45:24;;;;;;;8.52;1.10;;;13.40;99.90;;;;;;5050075;28;20033;-74
2023/08/07 02:47:49;;;;;;;4.55;0.70;;;13.40;99.90;;;;;;5051690;28;20491;-74
2023/08/07 02:50:15;;;;;;;7.95;0.80;;;13.40;99.90;;;;;;5052717;28;20021;-74
2023/08/07 02:52:40;;;;;;;7.82;1.20;;;13.40;99.90;;;;;;5051458;28;20056;-74
2023/08/07 02:55:06;;;;;;;6.65;1.23;;;13.40;99.90;;;;;;5050917;28;20025;-74
2023/08/07 02:57:32;;;;;;;8.73;0.90;;;13.40;99.90;;;;;;5052027;28;20068;-74
2023/08/07 02:59:57;;;;;;;8.77;1.30;;;13.50;99.90;;;;;;5050961;28;20039;-74
2023/08/07 03:02:23;;;;;;;9.95;1.42;;;13.40;99.90;;;;;;5058506;28;20129;-74
2023/08/07 03:04:48;;;;;;;8.95;1.67;;;13.40;99.90;;;;;;5058028;28;20082;-74
2023/08/07 03:07:14;;;;;;;7.78;0.90;;;13.40;99.90;;;;;;5051992;28;20075;-74
2023/08/07 03:09:39;;;;;;;8.82;1.30;;;13.50;99.90;;;;;;5067331;28;20063;-74
2023/08/07 03:12:05;;;;;;;11.27;1.73;;;13.50;99.90;;;;;;5067985;28;20036;-74
2023/08/07 03:14:31;;;;;;;7.10;1.10;;;13.50;99.90;;;;;;5053499;28;20025;-75
2023/08/07 03:16:57;;;;;;;7.38;1.20;;;13.50;99.90;;;;;;5051632;28;20155;-74
2023/08/07 03:19:22;;;;;;;11.13;1.20;;;13.50;99.90;;;;;;5052302;28;20025;-74
2023/08/07 03:21:48;;;;;;;8.77;1.38;;;13.50;99.90;;;;;;5051459;28;20056;-74
2023/08/07 03:24:13;;;;;;;7.60;1.10;;;13.50;99.90;;;;;;5047966;28;20500;-74
2023/08/07 03:26:39;;;;;;;10.88;1.00;;;13.50;99.90;;;;;;5050436;28;20036;-74
2023/08/07 03:29:04;;;;;;;9.82;1.10;;;13.50;99.90;;;;;;5051159;28;20023;-74
2023/08/07 03:31:30;;;;;;;9.20;1.08;;;13.50;99.90;;;;;;5052636;28;20033;-74
2023/08/07 03:33:55;;;;;;;7.68;0.90;;;13.50;99.90;;;;;;5052286;28;20017;-75
2023/08/07 03:36:21;;;;;;;8.73;1.02;;;13.50;99.90;;;;;;5055096;28;20086;-75
2023/08/07 03:38:47;;;;;;;12.00;1.55;;;13.50;99.90;;;;;;5071126;28;20040;-74
2023/08/07 03:41:12;;;;;;;7.20;1.38;;;13.50;99.90;;;;;;5071467;28;20055;-74
2023/08/07 03:43:38;;;;;;;10.75;1.17;;;13.60;99.90;;;;;;5071564;28;20020;-77
2023/08/07 03:46:03;;;;;;;9.85;1.38;;;13.60;99.90;;;;;;5053939;28;20115;-74
2023/08/07 03:48:29;;;;;;;8.95;1.02;;;13.60;99.90;;;;;;5043669;28;20032;-73
2023/08/07 03:51:05;;;;;;;7.65;1.40;;;13.60;99.90;;;;;;5064266;28;20428;-74
2023/08/07 03:53:31;;;;;;;10.80;1.60;;;13.60;99.90;;;;;;5053752;28;20027;-74
2023/08/07 03:55:56;;;;;;;18.23;1.13;;;13.60;99.90;;;;;;5049132;28;20540;-74
2023/08/07 03:58:21;;;;;;;12.13;1.92;;;13.60;99.90;;;;;;5059217;28;20029;-74
2023/08/07 04:00:47;;;;;;;9.70;1.65;;;13.50;99.90;;;;;;5062319;28;20060;-74
2023/08/07 04:03:13;;;;;;;8.32;1.40;;;13.40;99.90;;;;;;5060949;28;20531;-73
2023/08/07 04:05:38;;;;;;;11.35;1.35;;;13.20;99.90;;;;;;5049706;28;20044;-73
2023/08/07 04:08:04;;;;;;;9.52;1.20;;;13.10;99.90;;;;;;5051965;28;20071;-73
2023/08/07 04:10:29;;;;;;;9.93;1.50;;;13.00;99.90;;;;;;5034788;28;20033;-73
2023/08/07 04:12:55;;;;;;;14.75;2.28;;;12.90;99.90;;;;;;5041859;28;20024;-73
2023/08/07 04:15:20;;;;;;;11.52;2.00;;;12.90;99.90;;;;;;5057306;28;20053;-73
2023/08/07 04:17:46;;;;;;;9.05;1.60;;;12.90;99.90;;;;;;5050591;28;20126;-73
2023/08/07 04:20:11;;;;;;;11.88;1.50;;;12.80;99.90;;;;;;5057810;28;20037;-73
2023/08/07 04:22:37;;;;;;;13.95;1.48;;;12.80;99.90;;;;;;5051003;28;20067;-74
2023/08/07 04:25:03;;;;;;;12.38;1.60;;;12.80;99.90;;;;;;5037516;28;20041;-72
2023/08/07 04:27:28;;;;;;;7.05;1.60;;;12.80;99.90;;;;;;5051466;28;20044;-73
2023/08/07 04:29:54;;;;;;;12.27;1.60;;;12.80;99.90;;;;;;5052070;28;20031;-73
2023/08/07 04:32:19;;;;;;;14.45;1.80;;;12.80;99.90;;;;;;5026226;28;20450;-73
2023/08/07 04:34:45;;;;;;;21.95;2.15;;;12.80;99.90;;;;;;5052609;28;20043;-73
2023/08/07 04:37:10;;;;;;;10.65;1.80;;;12.80;99.90;;;;;;5061213;28;20039;-73
2023/08/07 04:39:36;;;;;;;21.92;3.63;;;12.80;99.90;;;;;;5070947;28;20029;-73
2023/08/07 04:42:02;;;;;;;8.50;1.30;;;12.80;99.90;;;;;;5051848;28;20435;-73
2023/08/07 04:44:28;;;;;;;5.43;1.17;;;12.80;99.90;;;;;;5049642;28;20484;-73
2023/08/07 04:46:53;;;;;;;17.52;1.70;;;12.80;99.90;;;;;;5059378;28;20072;-73
2023/08/07 04:49:19;;;;;;;11.68;1.85;;;12.90;99.90;;;;;;5070660;28;20078;-73
2023/08/07 04:51:44;;;;;;;11.90;2.08;;;12.90;99.90;;;;;;5073822;28;20472;-74
2023/08/07 04:54:10;;;;;;;10.15;2.13;;;12.90;99.90;;;;;;5074459;28;20438;-73
2023/08/07 04:56:35;;;;;;;12.85;1.38;;;12.90;99.90;;;;;;5052741;28;20548;-73
2023/08/07 04:59:01;;;;;;;9.68;2.00;;;12.90;99.90;;;;;;5053247;28;20115;-73
2023/08/07 05:01:27;;;;;;;11.68;2.55;;;12.90;99.90;;;;;;5038481;28;20069;-73
2023/08/07 05:03:52;;;;;;;10.32;2.13;;;13.00;99.90;;;;;;5051282;28;20099;-73
2023/08/07 05:06:19;;;;;;;9.68;1.67;;;13.00;99.90;;;;;;5054415;28;20392;-73
2023/08/07 05:08:44;;;;;;;10.20;1.60;;;13.00;99.90;;;;;;5049224;28;20028;-74
2023/08/07 05:11:10;;;;;;;11.50;1.70;;;13.00;99.90;;;;;;5048005;28;20029;-73
2023/08/07 05:13:35;;;;;;;9.68;1.67;;;13.10;99.90;;;;;;5054296;28;20051;-73
2023/08/07 05:16:01;;;;;;;12.07;2.03;;;13.10;99.90;;;;;;5039975;28;20366;-74
2023/08/07 05:18:27;;;;;;;12.75;1.90;;;13.10;99.90;;;;;;5056561;28;20155;-73
2023/08/07 05:20:52;;;;;;;14.00;1.88;;;13.10;99.90;;;;;;5050864;28;20108;-74
2023/08/07 05:23:18;;;;;;;15.80;2.70;;;13.20;99.90;;;;;;5039967;28;20127;-73
2023/08/07 05:25:47;;;;;;;8.95;1.83;;;13.20;99.90;;;;;;5045694;28;20040;-73
2023/08/07 05:28:12;;;;;;;7.63;1.60;;;13.20;99.90;;;;;;5061506;28;20020;-73
2023/08/07 05:30:38;;;;;;;6.20;1.35;;;13.20;99.90;;;;;;5051635;28;20029;-73
2023/08/07 05:33:03;;;;;;;13.90;1.55;;;13.30;99.90;;;;;;5047376;28;20129;-73
2023/08/07 05:35:29;;;;;;;15.27;2.08;;;13.30;99.90;;;;;;5040207;28;20104;-73
2023/08/07 05:37:55;;;;;;;12.85;1.75;;;13.20;99.90;;;;;;5039979;28;20025;-74
2023/08/07 05:40:20;;;;;;;9.80;1.58;;;13.30;99.90;;;;;;5049856;28;20426;-73
2023/08/07 05:42:46;;;;;;;9.00;2.03;;;13.30;99.90;;;;;;5069741;28;20031;-74
2023/08/07 05:45:11;;;;;;;12.98;2.30;;;13.30;99.90;;;;;;5059738;28;20025;-73
2023/08/07 05:47:37;;;;;;;10.80;2.08;;;13.30;99.90;;;;;;5061896;28;20501;-74
2023/08/07 05:50:03;;;;;;;9.88;1.80;;;13.30;99.90;;;;;;5045073;28;20484;-73
2023/08/07 05:52:28;;;;;;;8.48;1.30;;;13.30;99.90;;;;;;5034492;28;20029;-73
2023/08/07 05:54:54;;;;;;;12.73;2.53;;;13.30;99.90;;;;;;5051473;28;20021;-73
2023/08/07 05:57:19;;;;;;;15.80;2.55;;;13.30;99.90;;;;;;5054124;28;20032;-73
2023/08/07 05:59:45;;;;;;;14.82;1.92;;;13.30;99.90;;;;;;5051330;28;20040;-73
2023/08/07 06:02:11;;;;;;;18.00;2.42;;;13.30;99.90;;;;;;5039244;28;20520;-73
2023/08/07 06:04:37;;;;;;;12.85;2.88;;;13.30;99.90;;;;;;5040893;28;20017;-73
2023/08/07 06:07:03;;;;;;;9.98;2.70;;;13.40;99.90;;;;;;5026068;28;20029;-73
2023/08/07 06:09:28;;;;;;;16.17;3.00;;;13.40;99.90;;;;;;5039142;28;20500;-73
2023/08/07 06:11:54;;;;;;;11.65;2.25;;;13.40;99.90;;;;;;5028135;28;20367;-73
2023/08/07 06:14:19;;;;;;;14.38;3.70;;;13.40;99.90;;;;;;5027637;28;20374;-74
2023/08/07 06:16:45;;;;;;;13.35;2.25;;;13.40;99.90;;;;;;5036618;28;20065;-73
2023/08/07 06:19:10;;;;;;;13.10;2.30;;;13.40;99.90;;;;;;5033028;28;20037;-73
2023/08/07 06:21:36;;;;;;;12.13;2.25;;;13.40;99.90;;;;;;5033079;28;20139;-73
2023/08/07 06:24:02;;;;;;;17.33;1.95;;;13.40;99.90;;;;;;5035660;28;20057;-73
2023/08/07 06:26:27;;;;;;;13.18;1.88;;;13.40;99.90;;;;;;5032926;28;20048;-73
2023/08/07 06:28:53;;;;;;;14.00;1.98;;;13.40;99.90;;;;;;5023904;28;20048;-73
2023/08/07 06:31:19;;;;;;;11.02;2.10;;;13.30;99.90;;;;;;5024030;28;20025;-73
2023/08/07 06:33:45;;;;;;;10.30;1.63;;;13.30;99.90;;;;;;5025795;28;20017;-73
2023/08/07 06:36:10;;;;;;;9.45;1.45;;;13.30;99.90;;;;;;5030147;28;20474;-73
2023/08/07 06:38:36;;;;;;;6.40;1.10;;;13.30;99.90;;;;;;5031405;28;20030;-73
2023/08/07 06:41:01;;;;;;;5.80;1.58;;;13.20;99.90;;;;;;5040363;28;20068;-71
2023/08/07 06:43:27;;;;;;;11.95;1.60;;;13.20;99.90;;;;;;5003096;28;20026;-71
2023/08/07 06:45:54;;;;;;;4.70;1.20;;;13.10;99.90;;;;;;5033831;28;20037;-72
2023/08/07 06:48:20;;;;;;;9.50;1.35;;;13.10;99.90;;;;;;5028966;28;20477;-71
2023/08/07 06:50:50;;;;;;;6.95;1.70;;;13.10;99.90;;;;;;5032474;28;20041;-72
2023/08/07 06:53:16;;;;;;;12.63;2.65;;;13.10;99.90;;;;;;5034805;28;20033;-72
2023/08/07 06:55:42;;;;;;;10.02;1.63;;;13.20;99.90;;;;;;5026792;28;20401;-72
2023/08/07 06:58:08;;;;;;;14.98;2.20;;;13.20;99.90;;;;;;5030898;28;20033;-72
2023/08/07 07:00:35;;;;;;;10.32;1.52;;;13.30;99.90;;;;;;5034699;28;20583;-72
2023/08/07 07:03:01;;;;;;;8.25;1.60;;;13.40;99.90;;;;;;5057971;28;20127;-72
2023/08/07 07:05:26;;;;;;;9.68;1.45;;;13.50;99.90;;;;;;5044286;28;20106;-72
2023/08/07 07:07:52;;;;;;;11.07;2.10;;;13.70;99.90;;;;;;5040797;28;20461;-72
2023/08/07 07:10:18;;;;;;;10.80;2.60;;;13.80;99.90;;;;;;5043280;28;20021;-72
2023/08/07 07:12:43;;;;;;;12.52;2.83;;;13.90;99.90;;;;;;5048665;28;20489;-72
2023/08/07 07:15:09;;;;;;;13.02;2.55;;;14.00;99.90;;;;;;5047319;28;20329;-72
2023/08/07 07:17:35;;;;;;;8.98;2.72;;;14.20;99.90;;;;;;5046086;28;20024;-74
2023/08/07 07:20:00;;;;;;;12.90;2.13;;;14.30;99.90;;;;;;5047437;28;20029;-72
2023/08/07 07:22:26;;;;;;;9.73;2.30;;;14.30;99.90;;;;;;5044943;28;20033;-72
2023/08/07 07:24:51;;;;;;;8.10;2.63;;;14.30;99.90;;;;;;5043320;28;21182;-72
2023/08/07 07:27:17;;;;;;;8.48;2.28;;;14.40;99.90;;;;;;5041354;28;20131;-72
2023/08/07 07:29:43;;;;;;;12.02;2.13;;;14.40;99.90;;;;;;5041779;28;20501;-73
2023/08/07 07:32:09;;;;;;;10.63;2.40;;;14.40;99.90;;;;;;5045093;28;20025;-73
2023/08/07 07:34:35;;;;;;;16.25;3.15;;;14.40;99.90;;;;;;5022348;28;20426;-72
2023/08/07 07:37:02;;;;;;;10.50;2.38;;;14.50;99.90;;;;;;5044531;28;20131;-73
2023/08/07 07:39:28;;;;;;;11.43;1.90;;;14.60;99.90;;;;;;5047689;28;20025;-73
2023/08/07 07:41:54;;;;;;;9.75;2.00;;;14.90;99.90;;;;;;5047144;28;20036;-72
2023/08/07 07:44:19;;;;;;;10.40;1.85;;;15.00;99.90;;;;;;5042794;28;20104;-73
2023/08/07 07:46:45;;;;;;;9.10;1.45;;;15.10;99.90;;;;;;5042428;28;20040;-73
2023/08/07 07:49:11;;;;;;;10.82;2.08;;;15.10;99.90;;;;;;5024748;28;20105;-73
2023/08/07 07:51:40;;;;;;;9.35;1.90;;;15.10;99.90;;;;;;5042621;28;20025;-74
2023/08/07 07:54:06;;;;;;;7.53;1.60;;;15.10;99.90;;;;;;5041803;28;20091;-72
2023/08/07 07:56:32;;;;;;;11.65;2.00;;;15.10;99.90;;;;;;5045680;28;20032;-73
2023/08/07 07:58:57;;;;;;;6.25;1.33;;;15.10;99.90;;;;;;5045017;28;20033;-73
2023/08/07 08:01:23;;;;;;;11.27;1.50;;;14.90;99.90;;;;;;5023442;28;20047;-72
2023/08/07 08:03:49;;;;;;;9.57;1.50;;;14.70;99.90;;;;;;5037576;28;20489;-73
2023/08/07 08:06:14;;;;;;;11.43;2.45;;;14.50;99.90;;;;;;5045173;28;20029;-73
2023/08/07 08:08:42;;;;;;;10.35;2.17;;;14.30;99.90;;;;;;5047234;28;20351;-73
2023/08/07 08:11:08;;;;;;;11.40;2.20;;;14.20;99.90;;;;;;5037758;28;20035;-73
2023/08/07 08:13:35;;;;;;;11.00;2.30;;;14.20;99.90;;;;;;5040654;28;20021;-72
2023/08/07 08:16:01;;;;;;;12.13;2.45;;;14.20;99.90;;;;;;5045842;28;20025;-73
2023/08/07 08:18:26;;;;;;;9.32;2.20;;;14.20;99.90;;;;;;5063853;28;20369;-72
2023/08/07 08:20:52;;;;;;;8.88;2.90;;;14.20;99.90;;;;;;5060599;28;20538;-73
2023/08/07 08:23:17;;;;;;;14.93;3.40;;;14.20;99.90;;;;;;5060573;28;20025;-73
2023/08/07 08:25:43;;;;;;;12.70;3.17;;;14.40;99.90;;;;;;5051169;28;20021;-73
2023/08/07 08:28:08;;;;;;;14.90;3.05;;;14.60;99.90;;;;;;5062408;28;20032;-73
2023/08/07 08:30:34;;;;;;;14.00;2.70;;;14.70;99.90;;;;;;5047826;28;20029;-73
2023/08/07 08:32:59;;;;;;;14.57;2.95;;;14.90;99.90;;;;;;5049116;28;20032;-73
2023/08/07 08:35:25;;;;;;;17.83;3.85;;;15.00;99.90;;;;;;5054801;28;20404;-73
2023/08/07 08:37:51;;;;;;;15.85;3.70;;;15.20;99.90;;;;;;5052409;28;20028;-73
2023/08/07 08:40:17;;;;;;;11.40;3.03;;;15.50;99.90;;;;;;5060316;28;20021;-72
2023/08/07 08:42:46;;;;;;;17.08;2.92;;;15.60;99.90;;;;;;5064646;28;20024;-73
2023/08/07 08:45:14;;;;;;;10.68;2.55;;;15.70;99.90;;;;;;5041835;28;20556;-74
2023/08/07 08:47:41;;;;;;;16.95;2.35;;;15.70;99.90;;;;;;5049720;28;20104;-73
2023/08/07 08:50:11;;;;;;;11.70;2.15;;;15.70;99.90;;;;;;5049578;28;20033;-73
2023/08/07 08:52:38;;;;;;;10.25;1.60;;;15.80;99.90;;;;;;5049155;28;20040;-73
2023/08/07 08:55:04;;;;;;;13.70;2.05;;;15.80;99.90;;;;;;5055316;28;20433;-73
2023/08/07 08:57:30;;;;;;;10.38;1.30;;;15.90;99.90;;;;;;5054414;28;20040;-73
2023/08/07 08:59:57;;;;;;;7.50;1.48;;;16.00;99.90;;;;;;5055346;28;20029;-73
2023/08/07 09:02:23;;;;;;;10.23;1.65;;;16.20;99.90;;;;;;5039062;28;20489;-73
2023/08/07 09:04:48;;;;;;;5.45;0.77;;;16.30;99.90;;;;;;5033068;28;20040;-73
2023/08/07 09:07:16;;;;;;;8.70;1.50;;;16.30;99.90;;;;;;5044449;28;20033;-73
2023/08/07 09:09:44;;;;;;;5.28;1.17;;;16.20;99.90;;;;;;5045613;28;20104;-74
2023/08/07 09:12:29;;;;;;;12.43;1.00;;;16.30;99.90;;;;;;5051615;28;20021;-73
2023/08/07 09:14:57;;;;;;;14.65;1.83;;;16.40;99.90;;;;;;5044564;28;20040;-73
2023/08/07 09:17:26;;;;;;;8.68;0.95;;;16.30;99.90;;;;;;5040614;28;20025;-73
2023/08/07 09:19:53;;;;;;;6.82;0.98;;;16.20;99.90;;;;;;5037092;28;20477;-73
2023/08/07 09:22:19;;;;;;;8.45;0.93;;;16.40;99.90;;;;;;5050943;28;20025;-73
2023/08/07 09:24:45;;;;;;;12.43;1.55;;;16.40;99.90;;;;;;5043222;28;20033;-74
2023/08/07 09:27:11;;;;;;;11.00;1.45;;;16.40;99.90;;;;;;5051303;28;20037;-71
2023/08/07 09:29:39;;;;;;;11.40;1.10;;;16.60;99.90;;;;;;5048081;28;20025;-73
2023/08/07 09:32:09;;;;;;;13.75;1.63;;;16.80;99.90;;;;;;5039726;28;20029;-73
2023/08/07 09:34:34;;;;;;;7.50;0.95;;;16.90;99.90;;;;;;5028467;28;20029;-72
2023/08/07 09:37:01;;;;;;;8.48;1.02;;;17.00;99.90;;;;;;5049733;28;20031;-73
2023/08/07 09:39:27;;;;;;;9.00;0.70;;;17.20;99.90;;;;;;5024308;28;20025;-74
2023/08/07 09:41:53;;;;;;;6.45;1.10;;;17.10;99.90;;;;;;5054302;28;20104;-73
2023/08/07 09:44:18;;;;;;;8.35;1.00;;;16.90;99.90;;;;;;5057470;28;20496;-73
2023/08/07 09:46:44;;;;;;;7.25;0.77;;;16.70;99.90;;;;;;5056450;28;20496;-73
2023/08/07 09:49:10;;;;;;;5.38;0.65;;;16.60;99.90;;;;;;5064203;28;20025;-72
2023/08/07 09:51:47;;;;;;;10.68;1.42;;;16.50;99.90;;;;;;5055465;28;20377;-73
2023/08/07 09:54:13;;;;;;;8.75;1.52;;;16.40;99.90;;;;;;5057029;28;20472;-74
2023/08/07 09:56:43;;;;;;;4.75;0.88;;;16.50;99.90;;;;;;5052978;28;20493;-73
2023/08/07 09:59:09;;;;;;;9.15;0.70;;;16.40;99.90;;;;;;5034855;28;20029;-74
2023/08/07 10:01:37;;;;;;;7.53;1.20;;;16.50;99.90;;;;;;5046215;28;20060;-72
2023/08/07 10:04:04;;;;;;;6.35;0.75;;;16.50;99.90;;;;;;5066738;28;20028;-73
2023/08/07 10:06:30;;;;;;;6.22;1.13;;;16.60;99.90;;;;;;5056738;28;20119;-74
2023/08/07 10:08:57;;;;;;;9.13;0.70;;;16.70;99.90;;;;;;5073175;28;20108;-73
2023/08/07 10:11:23;;;;;;;7.50;1.00;;;16.80;99.90;;;;;;5058045;28;20037;-74
2023/08/07 10:13:50;;;;;;;7.82;1.23;;;16.80;99.90;;;;;;5034834;28;20058;-73
2023/08/07 10:16:15;;;;;;;6.97;0.80;;;16.80;99.90;;;;;;5044659;28;20802;-73
2023/08/07 10:18:41;;;;;;;6.88;1.00;;;16.80;99.90;;;;;;5063688;28;20116;-73
2023/08/07 10:21:07;;;;;;;6.88;1.10;;;16.80;99.90;;;;;;5066284;28;20095;-73
2023/08/07 10:23:37;;;;;;;6.55;0.85;;;16.90;99.90;;;;;;5053030;28;20424;-73
2023/08/07 10:26:05;;;;;;;9.13;0.80;;;16.90;99.90;;;;;;5051216;28;20474;-73
2023/08/07 10:28:33;;;;;;;4.15;0.70;;;17.00;99.90;;;;;;5052930;28;20025;-73
2023/08/07 10:30:59;;;;;;;8.15;0.90;;;17.10;99.90;;;;;;5047401;28;20041;-73
2023/08/07 10:33:25;;;;;;;7.03;0.80;;;17.30;99.90;;;;;;5052390;28;20103;-73
2023/08/07 10:35:52;;;;;;;6.88;0.80;;;17.30;99.90;;;;;;5050715;28;20079;-73
2023/08/07 10:38:22;;;;;;;7.43;0.80;;;17.40;99.90;;;;;;5052702;28;20385;-73
2023/08/07 10:41:12;;;;;;;8.57;1.27;;;17.40;99.90;;;;;;5058255;28;20120;-74
2023/08/07 10:43:43;;;;;;;6.20;0.70;;;17.50;99.90;;;;;;5051634;28;20098;-73
2023/08/07 10:46:15;;;;;;;7.35;1.13;;;17.50;99.90;;;;;;5046230;28;20033;-73
2023/08/07 10:48:47;;;;;;;7.80;1.00;;;17.60;99.90;;;;;;5051289;28;20496;-73
2023/08/07 10:51:19;;;;;;;4.95;0.60;;;17.70;99.90;;;;;;5026729;28;20048;-74
2023/08/07 10:53:47;;;;;;;6.30;0.90;;;17.70;99.90;;;;;;5047130;28;20482;-73
2023/08/07 10:56:37;;;;;;;6.28;0.70;;;17.80;99.90;;;;;;5047140;28;20108;-74
2023/08/07 10:59:10;;;;;;;7.70;0.95;;;17.70;99.90;;;;;;5044041;28;20116;-74
2023/08/07 11:01:38;;;;;;;6.13;0.80;;;17.40;99.90;;;;;;5049867;28;20049;-73
2023/08/07 11:04:14;;;;;;;7.80;0.93;;;17.20;99.90;;;;;;5045083;28;20030;-74
2023/08/07 11:06:42;;;;;;;6.53;0.80;;;17.00;99.90;;;;;;5047953;28;20029;-73
2023/08/07 11:09:09;;;;;;;8.27;1.45;;;16.80;99.90;;;;;;5042549;28;20113;-73
2023/08/07 11:11:40;;;;;;;6.40;0.77;;;16.80;99.90;;;;;;5044882;28;20211;-73
2023/08/07 11:14:12;;;;;;;6.13;0.80;;;17.00;99.90;;;;;;5052931;28;20044;-72
2023/08/07 11:16:38;;;;;;;5.95;1.42;;;17.20;99.90;;;;;;5059023;28;20529;-74
2023/08/07 11:19:05;;;;;;;7.80;0.98;;;17.20;99.90;;;;;;5045559;28;20070;-72
2023/08/07 11:21:34;;;;;;;7.80;0.70;;;17.40;99.90;;;;;;5029241;28;20036;-74
2023/08/07 11:24:01;;;;;;;6.55;1.08;;;17.50;99.90;;;;;;5033648;28;20431;-73
2023/08/07 11:26:28;;;;;;;6.82;1.02;;;17.60;99.90;;;;;;5038799;28;20039;-74
2023/08/07 11:28:57;;;;;;;4.55;0.80;;;17.70;99.90;;;;;;5043598;28;20025;-73
2023/08/07 11:31:24;;;;;;;6.15;0.50;;;17.70;99.90;;;;;;5042286;28;20052;-73
2023/08/07 11:33:54;;;;;;;6.35;1.15;;;17.80;99.90;;;;;;5033065;28;20116;-73
2023/08/07 11:36:20;;;;;;;5.53;0.82;;;18.00;99.90;;;;;;5025945;28;20191;-74
2023/08/07 11:38:46;;;;;;;4.53;0.50;;;18.20;99.90;;;;;;5050169;28;20369;-73
2023/08/07 11:41:14;;;;;;;6.10;0.60;;;18.20;99.90;;;;;;5064653;28;20033;-74
2023/08/07 11:43:41;;;;;;;4.68;0.90;;;18.30;99.90;;;;;;5047958;28;20072;-73
2023/08/07 11:46:09;;;;;;;6.75;0.70;;;18.30;99.90;;;;;;5049262;28;20559;-73
2023/08/07 11:48:37;;;;;;;5.85;0.85;;;18.30;99.90;;;;;;5058736;28;20440;-72
2023/08/07 11:51:04;;;;;;;6.43;0.70;;;18.40;99.90;;;;;;5032883;28;20400;-73
2023/08/07 11:53:32;;;;;;;7.32;1.40;;;18.50;99.90;;;;;;5047454;28;20101;-73
2023/08/07 11:56:06;;;;;;;5.38;0.70;;;18.60;99.90;;;;;;5051075;28;20025;-73
2023/08/07 11:58:35;;;;;;;6.07;0.50;;;18.70;99.90;;;;;;5069232;28;20208;-73
2023/08/07 12:01:15;;;;;;;5.80;0.90;;;18.80;99.90;;;;;;5070641;28;20048;-73
2023/08/07 12:04:08;;;;;;;4.13;0.93;;;18.80;99.90;;;;;;5053888;28;20033;-73
2023/08/07 12:06:35;;;;;;;4.95;0.80;;;19.00;99.90;;;;;;5069095;28;20481;-75
2023/08/07 12:09:01;;;;;;;3.08;0.50;;;19.00;99.90;;;;;;5050407;28;20024;-73
2023/08/07 12:11:29;;;;;;;5.55;0.57;;;18.90;99.90;;;;;;5050989;28;20033;-73
2023/08/07 12:13:55;;;;;;;6.57;0.85;;;18.80;99.90;;;;;;5046204;28;20017;-73
2023/08/07 12:16:20;;;;;;;4.28;0.50;;;18.70;99.90;;;;;;5046367;28;20471;-72
2023/08/07 12:18:51;;;;;;;7.70;0.68;;;18.70;99.90;;;;;;5028439;28;20025;-73
2023/08/07 12:21:23;;;;;;;5.60;0.90;;;18.80;99.90;;;;;;5050029;28;20481;-73
2023/08/07 12:23:50;;;;;;;4.05;0.77;;;19.00;99.90;;;;;;5039799;28;20032;-73
2023/08/07 12:26:16;;;;;;;5.38;0.68;;;18.90;99.90;;;;;;5050699;28;20493;-73
2023/08/07 12:28:42;;;;;;;2.47;0.60;;;18.80;99.90;;;;;;5046648;28;20029;-73
2023/08/07 12:31:08;;;;;;;2.05;0.40;;;18.70;99.90;;;;;;5064173;28;20051;-73
2023/08/07 12:33:33;;;;;;;8.55;0.50;;;18.90;99.90;;;;;;5048013;28;20024;-73
2023/08/07 12:36:00;;;;;;;2.90;0.50;;;19.10;99.90;;;;;;5048057;28;20021;-73
2023/08/07 12:38:26;;;;;;;3.67;0.50;;;19.40;99.90;;;;;;5068797;28;20078;-73
2023/08/07 12:40:53;;;;;;;3.17;0.40;;;19.50;99.90;;;;;;5071033;28;20025;-71